aviador You're here:

CYPY Decoded Metar

FORT CHIPEWYAN in AB, CANADA
Report Time2017-10-22 16:00:00
UTC Time2017-10-22 17:04:17
Flight Rules ifr IFR
Wind140° at 05 kt
W.Decomp.*RWY 21: 0.2 kt HW 5 kt LCW
W.Rank140° ranks 25
Current wind is below 140° avg. (5.3)
Visibility9999 m
Phenomena:N/A
Clouds:Overcast 008 Hf
Expected CloudBase > 400 ft AGL from Temp-Dew spread
Ceiling800 ft
Temp00°C (ISA -13)
Dew Point-1°C (93% RH)
AAT-3.9°C
QNH1000 hPa
Density Alt-358 ft
Elevation761 ft
Report Wrong Elevation
Raw Report
CYPY 221600Z AUTO 14005KT 9SM OVC008 00/M01 A2954 RMK SLP018=

Extra information for CYPY:More info

Metar Taf Metar & Taf Last 4 Metars F.Rules Stats Wind Profile Meteogram Temp Stats Airport Information Weather charts Add Link Nearby VenuesMetar ALERT Operation Metar Decoded Social comments